createdAt,value
2023-05-22T00:00:27.904Z,8.32
2023-05-22T00:02:54.906Z,8.30
2023-05-22T00:05:22.152Z,8.52
2023-05-22T00:07:49.615Z,7.90
2023-05-22T00:10:16.922Z,8.20
2023-05-22T00:12:43.867Z,8.63
2023-05-22T00:15:11.899Z,8.68
2023-05-22T00:17:38.832Z,8.23
2023-05-22T00:20:11.080Z,8.10
2023-05-22T00:22:38.170Z,9.05
2023-05-22T00:25:05.988Z,8.32
2023-05-22T00:27:36.094Z,8.45
2023-05-22T00:30:03.710Z,8.70
2023-05-22T00:32:30.645Z,8.20
2023-05-22T00:34:57.486Z,8.35
2023-05-22T00:37:25.602Z,8.38
2023-05-22T00:39:52.364Z,8.82
2023-05-22T00:42:19.339Z,9.18
2023-05-22T00:44:49.030Z,9.52
2023-05-22T00:47:16.177Z,9.50
2023-05-22T00:49:44.063Z,8.90
2023-05-22T00:52:12.920Z,9.40
2023-05-22T00:54:39.878Z,10.07
2023-05-22T00:57:07.330Z,9.85
2023-05-22T00:59:35.741Z,10.05
2023-05-22T01:02:03.341Z,10.30
2023-05-22T01:04:32.897Z,10.35
2023-05-22T01:07:02.997Z,10.15
2023-05-22T01:09:32.023Z,10.40
2023-05-22T01:12:10.804Z,9.98
2023-05-22T01:14:53.629Z,10.10
2023-05-22T01:17:28.879Z,9.85
2023-05-22T01:20:23.653Z,10.32
2023-05-22T01:23:13.525Z,10.55
2023-05-22T01:26:03.634Z,10.25
2023-05-22T01:29:07.742Z,10.77
2023-05-22T01:31:40.514Z,10.38
2023-05-22T01:34:13.844Z,10.68
2023-05-22T01:36:46.331Z,10.60
2023-05-22T01:39:14.664Z,10.65
2023-05-22T01:41:42.027Z,10.38
2023-05-22T01:44:08.868Z,10.55
2023-05-22T01:46:36.581Z,10.45
2023-05-22T01:49:03.726Z,10.50
2023-05-22T01:51:54.636Z,10.30
2023-05-22T01:54:36.832Z,9.70
2023-05-22T01:57:13.830Z,10.32
2023-05-22T01:59:45.594Z,10.18
2023-05-22T02:02:16.412Z,9.82
2023-05-22T02:04:50.640Z,10.55
2023-05-22T02:07:21.265Z,9.63
2023-05-22T02:09:50.825Z,8.98
2023-05-22T02:12:18.431Z,9.45
2023-05-22T02:14:46.396Z,10.20
2023-05-22T02:17:14.894Z,9.38
2023-05-22T02:19:41.721Z,10.15
2023-05-22T02:22:10.011Z,10.02
2023-05-22T02:24:38.191Z,9.88
2023-05-22T02:27:08.750Z,10.27
2023-05-22T02:29:35.863Z,9.63
2023-05-22T02:32:02.831Z,10.32
2023-05-22T02:34:34.195Z,10.10
2023-05-22T02:37:05.400Z,9.73
2023-05-22T02:39:32.271Z,9.85
2023-05-22T02:42:01.549Z,9.70
2023-05-22T02:44:28.330Z,8.85
2023-05-22T02:46:55.592Z,9.35
2023-05-22T02:49:22.752Z,9.52
2023-05-22T02:51:51.859Z,8.80
2023-05-22T02:54:18.838Z,8.52
2023-05-22T02:56:46.066Z,8.32
2023-05-22T02:59:14.989Z,9.43
2023-05-22T03:01:42.056Z,9.10
2023-05-22T03:04:08.971Z,10.63
2023-05-22T03:06:37.340Z,10.55
2023-05-22T03:09:05.308Z,10.15
2023-05-22T03:11:32.554Z,10.00
2023-05-22T03:13:59.428Z,10.70
2023-05-22T03:16:26.928Z,9.65
2023-05-22T03:19:12.122Z,8.57
2023-05-22T03:21:40.854Z,10.80
2023-05-22T03:24:08.180Z,9.02
2023-05-22T03:26:35.043Z,9.32
2023-05-22T03:29:02.921Z,9.93
2023-05-22T03:31:33.157Z,10.85
2023-05-22T03:34:00.962Z,10.50
2023-05-22T03:36:28.719Z,10.95
2023-05-22T03:38:56.455Z,10.85
2023-05-22T03:41:23.252Z,11.15
2023-05-22T03:43:50.115Z,10.98
2023-05-22T03:46:16.942Z,10.45
2023-05-22T03:48:43.878Z,9.40
2023-05-22T03:51:10.865Z,10.23
2023-05-22T03:53:37.900Z,10.05
2023-05-22T03:56:04.872Z,9.57
2023-05-22T03:58:32.251Z,9.07
2023-05-22T04:01:01.386Z,10.40
2023-05-22T04:03:28.820Z,10.25
2023-05-22T04:05:56.889Z,10.73
2023-05-22T04:08:24.025Z,10.00
2023-05-22T04:10:51.027Z,8.93
2023-05-22T04:13:20.042Z,9.25
2023-05-22T04:15:47.186Z,9.90
2023-05-22T04:18:14.638Z,9.50
2023-05-22T04:20:43.046Z,9.93
2023-05-22T04:23:11.430Z,9.38
2023-05-22T04:25:38.244Z,9.68
2023-05-22T04:28:06.246Z,9.77
2023-05-22T04:30:40.512Z,8.77
2023-05-22T04:33:08.643Z,9.48
2023-05-22T04:35:36.256Z,9.48
2023-05-22T04:38:03.812Z,9.20
2023-05-22T04:40:33.489Z,9.02
2023-05-22T04:43:01.713Z,9.15
2023-05-22T04:45:28.929Z,8.73
2023-05-22T04:47:56.629Z,10.07
2023-05-22T04:50:24.217Z,9.73
2023-05-22T04:52:51.752Z,9.88
2023-05-22T04:55:20.433Z,10.50
2023-05-22T04:57:47.492Z,10.32
2023-05-22T05:00:16.587Z,10.68
2023-05-22T05:02:43.540Z,10.40
2023-05-22T05:05:11.795Z,11.35
2023-05-22T05:07:43.653Z,10.90
2023-05-22T05:10:11.069Z,11.07
2023-05-22T05:12:37.900Z,11.43
2023-05-22T05:15:05.200Z,11.20
2023-05-22T05:17:32.390Z,11.48
2023-05-22T05:20:00.133Z,11.57
2023-05-22T05:22:27.008Z,11.65
2023-05-22T05:24:53.752Z,12.07
2023-05-22T05:27:21.058Z,11.38
2023-05-22T05:29:48.252Z,10.90
2023-05-22T05:32:15.766Z,11.88
2023-05-22T05:34:42.913Z,11.20
2023-05-22T05:37:10.070Z,11.48
2023-05-22T05:39:36.862Z,10.70
2023-05-22T05:42:05.398Z,11.65
2023-05-22T05:44:32.645Z,11.32
2023-05-22T05:46:59.909Z,11.05
2023-05-22T05:49:27.144Z,11.60
2023-05-22T05:51:54.483Z,11.48
2023-05-22T05:54:21.806Z,11.57
2023-05-22T05:56:49.798Z,11.30
2023-05-22T05:59:16.774Z,11.07
2023-05-22T06:01:46.106Z,11.43
2023-05-22T06:04:16.007Z,11.68
2023-05-22T06:06:46.839Z,11.48
2023-05-22T06:09:13.868Z,11.52
2023-05-22T06:11:40.642Z,11.02
2023-05-22T06:14:08.998Z,11.25
2023-05-22T06:16:43.957Z,11.10
2023-05-22T06:19:11.434Z,11.00
2023-05-22T06:21:38.418Z,11.48
2023-05-22T06:24:05.968Z,10.93
2023-05-22T06:26:33.477Z,11.20
2023-05-22T06:29:00.941Z,10.93
2023-05-22T06:31:28.274Z,11.10
2023-05-22T06:33:55.624Z,10.98
2023-05-22T06:36:24.530Z,11.55
2023-05-22T06:38:52.005Z,10.98
2023-05-22T06:41:18.853Z,11.43
2023-05-22T06:43:45.885Z,11.23
2023-05-22T06:46:13.397Z,11.65
2023-05-22T06:48:41.746Z,11.32
2023-05-22T06:51:11.934Z,11.63
2023-05-22T06:53:40.102Z,10.52
2023-05-22T06:56:09.798Z,10.68
2023-05-22T06:58:39.562Z,10.70
2023-05-22T07:01:07.280Z,10.70
2023-05-22T07:03:35.293Z,10.77
2023-05-22T07:06:03.722Z,10.70
2023-05-22T07:08:31.076Z,10.80
2023-05-22T07:10:58.323Z,10.85
2023-05-22T07:13:25.075Z,10.43
2023-05-22T07:15:52.138Z,10.23
2023-05-22T07:18:19.169Z,10.15
2023-05-22T07:20:46.281Z,10.23
2023-05-22T07:23:13.103Z,10.02
2023-05-22T07:25:40.048Z,10.35
2023-05-22T07:28:09.237Z,9.45
2023-05-22T07:30:38.220Z,10.07
2023-05-22T07:33:05.587Z,10.05
2023-05-22T07:35:32.696Z,9.75
2023-05-22T07:37:59.543Z,9.75
2023-05-22T07:40:28.828Z,9.38
2023-05-22T07:42:57.337Z,9.15
2023-05-22T07:45:24.517Z,9.85
2023-05-22T07:47:53.326Z,9.30
2023-05-22T07:50:21.122Z,8.85
2023-05-22T07:52:48.245Z,9.18
2023-05-22T07:55:15.219Z,9.80
2023-05-22T07:57:44.208Z,8.95
2023-05-22T08:00:13.819Z,9.05
2023-05-22T08:02:41.856Z,9.45
2023-05-22T08:05:09.876Z,8.45
2023-05-22T08:07:38.573Z,8.20
2023-05-22T08:10:13.744Z,8.13
2023-05-22T08:12:41.140Z,8.80
2023-05-22T08:15:08.428Z,8.65
2023-05-22T08:17:37.960Z,8.60
2023-05-22T08:20:08.161Z,8.25
2023-05-22T08:22:38.338Z,8.32
2023-05-22T08:25:09.003Z,8.50
2023-05-22T08:27:35.969Z,8.50
2023-05-22T08:30:05.337Z,8.35
2023-05-22T08:32:32.513Z,8.68
2023-05-22T08:35:01.608Z,9.18
2023-05-22T08:37:31.181Z,8.90
2023-05-22T08:39:58.214Z,8.65
2023-05-22T08:42:25.697Z,8.77
2023-05-22T08:44:55.713Z,8.63
2023-05-22T08:47:28.147Z,7.68
2023-05-22T08:49:58.397Z,8.60
2023-05-22T08:52:51.244Z,8.77
2023-05-22T08:55:19.693Z,8.80
2023-05-22T08:57:49.761Z,8.70
2023-05-22T09:00:17.696Z,9.07
2023-05-22T09:02:45.542Z,8.80
2023-05-22T09:05:13.186Z,8.60
2023-05-22T09:07:41.565Z,9.43
2023-05-22T09:10:08.775Z,9.73
2023-05-22T09:12:36.226Z,8.80
2023-05-22T09:15:10.785Z,7.28
2023-05-22T09:17:44.357Z,7.70
2023-05-22T09:20:16.545Z,7.30
2023-05-22T09:22:43.564Z,8.10
2023-05-22T09:25:17.792Z,7.95
2023-05-22T09:27:54.406Z,8.25
2023-05-22T09:30:21.561Z,7.88
2023-05-22T09:32:55.534Z,9.05
2023-05-22T09:35:22.734Z,6.88
2023-05-22T09:37:52.124Z,6.78
2023-05-22T09:40:19.119Z,6.57
2023-05-22T09:42:46.134Z,6.55
2023-05-22T09:45:13.515Z,7.50
2023-05-22T09:47:40.853Z,6.93
2023-05-22T09:50:10.993Z,6.72
2023-05-22T09:52:38.555Z,6.63
2023-05-22T09:55:07.277Z,6.32
2023-05-22T09:57:46.269Z,6.10
2023-05-22T10:00:15.980Z,7.03
2023-05-22T10:02:46.318Z,7.47
2023-05-22T10:05:23.649Z,6.88
2023-05-22T10:07:52.329Z,6.45
2023-05-22T10:10:23.019Z,6.38
2023-05-22T10:12:56.412Z,6.45
2023-05-22T10:15:23.762Z,6.68
2023-05-22T10:17:50.921Z,7.05
2023-05-22T10:20:17.864Z,7.28
2023-05-22T10:22:46.905Z,6.40
2023-05-22T10:25:13.795Z,7.38
2023-05-22T10:27:41.772Z,6.85
2023-05-22T10:30:53.680Z,6.30
2023-05-22T10:33:27.905Z,6.82
2023-05-22T10:36:19.776Z,6.28
2023-05-22T10:41:32.540Z,6.15
2023-05-22T10:43:59.594Z,6.03
2023-05-22T10:46:26.592Z,6.43
2023-05-22T10:48:58.116Z,6.20
2023-05-22T10:54:05.556Z,6.25
2023-05-22T10:56:36.224Z,6.53
2023-05-22T10:59:08.604Z,6.38
2023-05-22T11:01:37.841Z,6.03
2023-05-22T11:04:07.083Z,6.13
2023-05-22T11:07:02.903Z,6.60
2023-05-22T11:09:34.575Z,6.43
2023-05-22T11:12:22.629Z,5.80
2023-05-22T11:14:56.823Z,6.15
2023-05-22T11:17:31.540Z,5.30
2023-05-22T11:20:10.681Z,5.40
2023-05-22T11:22:44.153Z,5.65
2023-05-22T11:25:20.288Z,5.80
2023-05-22T11:27:48.062Z,5.32
2023-05-22T11:30:16.291Z,5.80
2023-05-22T11:32:45.479Z,6.03
2023-05-22T11:35:17.235Z,5.80
2023-05-22T11:37:44.916Z,5.93
2023-05-22T11:40:14.973Z,5.45
2023-05-22T11:42:42.264Z,5.10
2023-05-22T11:45:10.123Z,5.50
2023-05-22T11:47:37.817Z,6.03
2023-05-22T11:50:06.983Z,4.93
2023-05-22T11:52:35.650Z,4.70
2023-05-22T11:55:22.982Z,4.90
2023-05-22T11:57:50.097Z,4.82
2023-05-22T12:00:18.107Z,4.70
2023-05-22T12:02:46.638Z,5.32
2023-05-22T12:05:14.068Z,4.93
2023-05-22T12:07:41.381Z,4.35
2023-05-22T12:10:09.604Z,4.88
2023-05-22T12:12:37.530Z,4.38
2023-05-22T12:15:08.053Z,4.63
2023-05-22T12:17:37.740Z,4.80
2023-05-22T12:20:08.705Z,4.72
2023-05-22T12:22:43.264Z,5.32
2023-05-22T12:25:16.585Z,5.57
2023-05-22T12:27:45.910Z,4.40
2023-05-22T12:30:15.501Z,4.55
2023-05-22T12:32:47.998Z,4.78
2023-05-22T12:35:19.370Z,4.20
2023-05-22T12:37:51.309Z,4.75
2023-05-22T12:40:18.737Z,4.75
2023-05-22T12:42:45.873Z,5.63
2023-05-22T12:45:13.525Z,5.00
2023-05-22T12:47:41.834Z,5.20
2023-05-22T12:50:10.630Z,4.93
2023-05-22T12:52:37.584Z,6.05
2023-05-22T12:55:05.776Z,5.20
2023-05-22T12:57:33.683Z,5.20
2023-05-22T13:00:00.375Z,4.95
2023-05-22T13:02:28.506Z,5.63
2023-05-22T13:04:55.363Z,5.65
2023-05-22T13:07:22.391Z,4.90
2023-05-22T13:09:49.236Z,5.10
2023-05-22T13:12:16.487Z,5.22
2023-05-22T13:14:43.582Z,5.57
2023-05-22T13:17:11.186Z,5.82
2023-05-22T13:19:38.288Z,5.78
2023-05-22T13:22:07.495Z,6.00
2023-05-22T13:24:34.749Z,5.80
2023-05-22T13:27:01.957Z,5.97
2023-05-22T13:29:28.820Z,5.78
2023-05-22T13:31:55.628Z,5.13
2023-05-22T13:34:22.587Z,5.45
2023-05-22T13:36:49.914Z,4.90
2023-05-22T13:39:16.872Z,4.70
2023-05-22T13:41:44.642Z,4.38
2023-05-22T13:44:11.801Z,4.53
2023-05-22T13:46:40.779Z,3.92
2023-05-22T13:49:08.177Z,4.03
2023-05-22T13:51:34.989Z,4.13
2023-05-22T13:54:03.221Z,4.75
2023-05-22T13:56:30.272Z,4.10
2023-05-22T13:58:59.457Z,4.40
2023-05-22T14:01:26.556Z,4.00
2023-05-22T14:03:53.586Z,3.78
2023-05-22T14:06:20.455Z,3.53
2023-05-22T14:08:47.307Z,3.90
2023-05-22T14:11:14.291Z,3.72
2023-05-22T14:13:41.030Z,3.75
2023-05-22T14:16:07.922Z,4.00
2023-05-22T14:18:34.812Z,3.90
2023-05-22T14:21:03.924Z,3.83
2023-05-22T14:23:31.822Z,3.33
2023-05-22T14:25:58.846Z,3.35
2023-05-22T14:28:26.237Z,3.75
2023-05-22T14:30:55.628Z,3.80
2023-05-22T14:33:22.673Z,3.60
2023-05-22T14:35:51.649Z,3.47
2023-05-22T14:38:19.084Z,3.42
2023-05-22T14:40:45.918Z,3.67
2023-05-22T14:43:13.015Z,3.90
2023-05-22T14:45:40.195Z,3.83
2023-05-22T14:48:11.043Z,3.45
2023-05-22T14:50:38.046Z,3.40
2023-05-22T14:53:04.804Z,3.60
2023-05-22T14:55:32.036Z,3.75
2023-05-22T14:57:59.203Z,3.50
2023-05-22T15:00:26.756Z,3.28
2023-05-22T15:02:53.697Z,3.30
2023-05-22T15:05:20.797Z,3.20
2023-05-22T15:07:49.798Z,3.00
2023-05-22T15:10:18.193Z,3.07
2023-05-22T15:12:45.128Z,3.08
2023-05-22T15:15:11.962Z,2.80
2023-05-22T15:17:40.780Z,3.15
2023-05-22T15:20:10.557Z,2.55
2023-05-22T15:22:37.563Z,2.95
2023-05-22T15:25:06.580Z,2.70
2023-05-22T15:27:35.616Z,2.70
2023-05-22T15:30:03.298Z,2.63
2023-05-22T15:32:32.557Z,3.30
2023-05-22T15:34:59.478Z,3.08
2023-05-22T15:37:26.770Z,2.85
2023-05-22T15:39:53.703Z,2.47
2023-05-22T15:42:20.543Z,2.40
2023-05-22T15:44:47.392Z,2.58
2023-05-22T15:47:14.945Z,2.30
2023-05-22T15:49:41.794Z,2.47
2023-05-22T15:52:09.770Z,2.58
2023-05-22T15:54:36.775Z,2.40
2023-05-22T15:57:03.658Z,2.47
2023-05-22T15:59:30.852Z,2.55
2023-05-22T16:01:57.748Z,2.40
2023-05-22T16:04:24.786Z,2.40
2023-05-22T16:06:51.844Z,2.45
2023-05-22T16:09:19.867Z,2.30
2023-05-22T16:11:47.008Z,2.30
2023-05-22T16:14:13.920Z,2.03
2023-05-22T16:16:41.088Z,2.30
2023-05-22T16:19:08.194Z,2.10
2023-05-22T16:21:36.385Z,2.30
2023-05-22T16:24:06.515Z,2.35
2023-05-22T16:26:33.397Z,2.20
2023-05-22T16:29:00.306Z,2.20
2023-05-22T16:31:27.260Z,2.50
2023-05-22T16:33:54.341Z,2.20
2023-05-22T16:36:21.432Z,2.33
2023-05-22T16:38:48.211Z,2.25
2023-05-22T16:41:15.076Z,2.40
2023-05-22T16:43:42.135Z,2.58
2023-05-22T16:46:08.941Z,2.30
2023-05-22T16:48:35.951Z,2.67
2023-05-22T16:51:03.006Z,2.60
2023-05-22T16:53:29.858Z,2.50
2023-05-22T16:55:57.095Z,2.30
2023-05-22T16:58:25.573Z,2.50
2023-05-22T17:00:53.194Z,2.45
2023-05-22T17:03:20.418Z,2.38
2023-05-22T17:05:47.738Z,2.60
2023-05-22T17:08:15.054Z,2.55
2023-05-22T17:10:41.844Z,2.90
2023-05-22T17:13:09.144Z,2.20
2023-05-22T17:15:36.061Z,2.60
2023-05-22T17:18:03.323Z,2.30
2023-05-22T17:20:34.351Z,2.40
2023-05-22T17:23:01.175Z,2.55
2023-05-22T17:25:28.370Z,2.47
2023-05-22T17:27:55.237Z,2.58
2023-05-22T17:30:22.142Z,2.58
2023-05-22T17:32:50.251Z,2.50
2023-05-22T17:35:18.216Z,2.90
2023-05-22T17:37:45.288Z,3.08
2023-05-22T17:40:12.287Z,2.88
2023-05-22T17:42:39.437Z,2.97
2023-05-22T17:45:08.546Z,3.10
2023-05-22T17:47:36.021Z,2.92
2023-05-22T17:50:02.807Z,2.80
2023-05-22T17:52:29.606Z,3.22
2023-05-22T17:54:56.435Z,3.13
2023-05-22T17:57:23.323Z,3.13
2023-05-22T17:59:50.109Z,2.80
2023-05-22T18:02:17.159Z,2.83
2023-05-22T18:04:44.359Z,3.08
2023-05-22T18:07:14.260Z,3.30
2023-05-22T18:09:41.168Z,2.95
2023-05-22T18:12:30.232Z,3.20
2023-05-22T18:14:58.301Z,3.55
2023-05-22T18:17:25.162Z,3.00
2023-05-22T18:19:51.985Z,3.20
2023-05-22T18:22:18.932Z,3.75
2023-05-22T18:24:46.123Z,3.30
2023-05-22T18:27:14.256Z,3.60
2023-05-22T18:29:41.206Z,3.50
2023-05-22T18:32:09.632Z,3.58
2023-05-22T18:34:37.648Z,3.70
2023-05-22T18:37:04.720Z,3.80
2023-05-22T18:39:31.453Z,3.80
2023-05-22T18:41:58.903Z,3.53
2023-05-22T18:44:25.956Z,3.60
2023-05-22T18:46:52.961Z,3.45
2023-05-22T18:49:20.062Z,3.67
2023-05-22T18:51:47.017Z,3.60
2023-05-22T18:54:13.785Z,3.60
2023-05-22T18:56:40.896Z,4.03
2023-05-22T18:59:07.809Z,3.85
2023-05-22T19:01:35.101Z,3.60
2023-05-22T19:04:02.160Z,3.60
2023-05-22T19:06:30.917Z,3.60
2023-05-22T19:08:57.874Z,3.60
2023-05-22T19:11:24.809Z,3.60
2023-05-22T19:13:51.854Z,3.90
2023-05-22T19:16:18.786Z,3.90
2023-05-22T19:18:47.293Z,3.72
2023-05-22T19:21:14.395Z,3.80
2023-05-22T19:23:41.301Z,4.00
2023-05-22T19:26:08.117Z,4.05
2023-05-22T19:28:34.925Z,4.00
2023-05-22T19:31:05.357Z,3.97
2023-05-22T19:33:32.548Z,3.95
2023-05-22T19:35:59.736Z,4.00
2023-05-22T19:38:26.835Z,4.28
2023-05-22T19:40:55.072Z,4.20
2023-05-22T19:43:21.961Z,3.97
2023-05-22T19:45:49.252Z,4.05
2023-05-22T19:48:16.342Z,4.20
2023-05-22T19:50:43.506Z,4.03
2023-05-22T19:53:10.661Z,4.00
2023-05-22T19:55:37.567Z,4.38
2023-05-22T19:58:04.869Z,4.07
2023-05-22T20:00:31.994Z,4.20
2023-05-22T20:02:59.076Z,4.20
2023-05-22T20:05:26.122Z,4.15
2023-05-22T20:07:53.102Z,4.03
2023-05-22T20:10:20.040Z,4.22
2023-05-22T20:12:48.288Z,4.20
2023-05-22T20:15:18.132Z,4.22
2023-05-22T20:17:52.258Z,4.00
2023-05-22T20:20:20.573Z,4.45
2023-05-22T20:22:47.773Z,4.30
2023-05-22T20:25:14.614Z,4.57
2023-05-22T20:27:41.734Z,4.70
2023-05-22T20:30:11.481Z,4.85
2023-05-22T20:32:42.783Z,5.00
2023-05-22T20:35:11.050Z,4.63
2023-05-22T20:37:38.502Z,5.03
2023-05-22T20:40:06.505Z,5.15
2023-05-22T20:42:33.781Z,5.00
2023-05-22T20:45:02.758Z,5.43
2023-05-22T20:47:30.156Z,5.03
2023-05-22T20:49:57.906Z,5.13
2023-05-22T20:52:25.643Z,5.20
2023-05-22T20:54:52.763Z,5.25
2023-05-22T20:57:19.646Z,4.80
2023-05-22T20:59:46.458Z,4.75
2023-05-22T21:02:13.355Z,4.03
2023-05-22T21:04:40.129Z,4.32
2023-05-22T21:07:08.305Z,3.80
2023-05-22T21:09:35.193Z,3.50
2023-05-22T21:12:03.958Z,3.15
2023-05-22T21:14:31.969Z,3.20
2023-05-22T21:16:59.941Z,2.95
2023-05-22T21:19:27.129Z,2.97
2023-05-22T21:21:54.190Z,3.35
2023-05-22T21:24:21.798Z,2.67
2023-05-22T21:26:49.302Z,2.90
2023-05-22T21:29:16.341Z,2.88
2023-05-22T21:31:43.439Z,2.97
2023-05-22T21:34:10.425Z,2.80
2023-05-22T21:36:38.865Z,2.72
2023-05-22T21:39:05.757Z,3.00
2023-05-22T21:41:32.706Z,2.90
2023-05-22T21:44:00.789Z,2.72
2023-05-22T21:46:27.814Z,3.10
2023-05-22T21:48:54.955Z,2.70
2023-05-22T21:51:21.982Z,2.90
2023-05-22T21:53:48.819Z,2.90
2023-05-22T21:56:15.772Z,3.00
2023-05-22T21:58:42.756Z,2.80
2023-05-22T22:01:10.129Z,3.03
2023-05-22T22:03:38.902Z,2.83
2023-05-22T22:06:06.552Z,2.90
2023-05-22T22:08:33.499Z,3.10
2023-05-22T22:11:00.713Z,3.00
2023-05-22T22:13:27.751Z,3.10
2023-05-22T22:15:56.273Z,2.80
2023-05-22T22:18:23.486Z,3.05
2023-05-22T22:20:54.243Z,3.28
2023-05-22T22:23:22.012Z,3.15
2023-05-22T22:25:49.433Z,3.28
2023-05-22T22:28:16.652Z,3.00
2023-05-22T22:30:43.383Z,3.20
2023-05-22T22:33:11.885Z,3.33
2023-05-22T22:35:39.826Z,3.30
2023-05-22T22:38:06.894Z,3.70
2023-05-22T22:40:33.821Z,3.35
2023-05-22T22:43:00.781Z,3.67
2023-05-22T22:45:27.687Z,3.35
2023-05-22T22:47:56.743Z,3.53
2023-05-22T22:50:26.526Z,3.50
2023-05-22T22:52:53.779Z,3.70
2023-05-22T22:55:21.272Z,3.83
2023-05-22T22:57:50.227Z,3.78
2023-05-22T23:00:18.059Z,3.50
2023-05-22T23:02:47.665Z,4.35
2023-05-22T23:05:16.838Z,3.80
2023-05-22T23:07:46.817Z,3.60
2023-05-22T23:10:15.017Z,3.63
2023-05-22T23:12:41.884Z,3.50
2023-05-22T23:15:11.278Z,4.10
2023-05-22T23:17:38.394Z,3.83
2023-05-22T23:20:06.104Z,4.50
2023-05-22T23:22:35.550Z,4.15
2023-05-22T23:25:02.678Z,4.15
2023-05-22T23:27:29.548Z,4.22
2023-05-22T23:29:56.444Z,4.32
2023-05-22T23:32:23.579Z,4.45
2023-05-22T23:34:50.544Z,4.43
2023-05-22T23:37:17.469Z,4.28
2023-05-22T23:39:44.421Z,4.40
2023-05-22T23:42:12.047Z,4.75
2023-05-22T23:44:38.850Z,3.95
2023-05-22T23:47:06.713Z,4.38
2023-05-22T23:49:33.981Z,5.07
2023-05-22T23:52:03.922Z,4.68
2023-05-22T23:54:30.859Z,4.78
2023-05-22T23:56:57.611Z,4.85
2023-05-22T23:59:24.612Z,4.82
